< < Back
Terminal Aerodrome Forecast


Current Version              Previous Versions:   1  2  3  4  5  6  7  8  9  

Terminal Aerodrome Forecast

980
FTUS42 KGSP 250538
TAFHKY
TAF
KHKY 250538Z 2506/2606 VRB03KT P6SM FEW080 SCT250
     FM251700 22006KT P6SM SCT060 BKN250
     FM252100 23006KT P6SM BKN060
     FM260000 23003KT P6SM BKN070=



Latest METAR

119
SAUS70 KWBC 251300
MTRHKY
METAR KHKY 251253Z 28006KT 10SM CLR 18/12 A3024 RMK AO2 SLP222
T01830122


USA.gov is the U.S. government's official web portal to all federal, state and local government web resources and services.